Time;durP1;ratioP1;P1;durP2;ratioP2;P2;SDS_P1;SDS_P2;PMS_P1;PMS_P2;Temp;Humidity;BMP_temperature;BMP_pressure;BME280_temperature;BME280_humidity;BME280_pressure;Samples;Min_cycle;Max_cycle;Signal;HPM_P1;HPM_P2
2022/12/29 00:01:42;;;;;;;;;;;;;;;;;;5015301;28;19932;-91
2022/12/29 00:04:08;;;;;;;;;;;;;;;;;;4997227;28;19914;-90
2022/12/29 00:06:37;;;;;;;;;;;;;;;;;;5013728;28;19936;-90
2022/12/29 00:09:03;;;;;;;;;;;;;;;;;;4982713;28;19978;-90
2022/12/29 00:11:28;;;;;;;;;;;;;;;;;;4998947;28;19914;-90
2022/12/29 00:16:48;;;;;;;;;;;;;;;;;;4999500;28;19920;-91
2022/12/29 00:35:55;;;;;;;;;;;;;;;;;;5012073;28;19917;-91
2022/12/29 00:44:05;;;;;;;;;;;;;;;;;;4999904;28;19913;-87
2022/12/29 00:46:36;;;;;;;;;;;;;;;;;;4982520;28;19969;-87
2022/12/29 00:51:46;;;;;;;;;;;;;;;;;;5003778;28;19922;-88
2022/12/29 00:54:15;;;;;;;;;;;;;;;;;;5025257;23;19917;-88
2022/12/29 00:56:43;;;;;;;;;;;;;;;;;;4968712;28;19914;-86
2022/12/29 00:59:16;;;;;;;;;;;;;;;;;;4984667;28;19898;-89
2022/12/29 01:01:49;;;;;;;;;;;;;;;;;;4969447;28;19914;-89
2022/12/29 01:04:19;;;;;;;;;;;;;;;;;;4985649;28;19927;-90
2022/12/29 01:07:01;;;;;;;;;;;;;;;;;;4973277;28;19990;-90
2022/12/29 01:12:44;;;;;;;;;;;;;;;;;;5200264;23;19910;-90
2022/12/29 01:15:21;;;;;;;;;;;;;;;;;;5005484;28;19902;-90
2022/12/29 01:20:41;;;;;;;;;;;;;;;;;;5276916;23;19922;-90
2022/12/29 01:23:21;;;;;;;;;;;;;;;;;;5005054;28;19902;-91
2022/12/29 01:26:10;;;;;;;;;;;;;;;;;;4993168;28;19918;-89
2022/12/29 01:28:41;;;;;;;;;;;;;;;;;;5004445;28;19924;-91
2022/12/29 01:31:07;;;;;;;;;;;;;;;;;;5409871;23;19904;-89
2022/12/29 01:33:38;;;;;;;;;;;;;;;;;;5005092;28;19902;-90
2022/12/29 01:36:12;;;;;;;;;;;;;;;;;;5005481;28;19914;-91
2022/12/29 01:38:45;;;;;;;;;;;;;;;;;;5492660;23;19926;-91
2022/12/29 01:46:34;;;;;;;;;;;;;;;;;;5522722;22;19989;-88
2022/12/29 01:49:03;;;;;;;;;;;;;;;;;;5329729;23;19909;-87
2022/12/29 01:54:03;;;;;;;;;;;;;;;;;;5885159;22;21073;-86
2022/12/29 01:56:29;;;;;;;;;;;;;;;;;;5328176;23;19921;-89
2022/12/29 02:04:22;;;;;;;;;;;;;;;;;;5187075;22;19929;-90
2022/12/29 02:06:47;;;;;;;;;;;;;;;;;;5421822;23;19910;-84
2022/12/29 02:11:58;;;;;;;;;;;;;;;;;;5684521;22;19922;-89
2022/12/29 02:14:24;;;;;;;;;;;;;;;;;;5210064;23;19910;-90
2022/12/29 02:16:56;;;;;;;;;;;;;;;;;;5024220;28;19969;-87
2022/12/29 02:22:12;;;;;;;;;;;;;;;;;;5093913;22;19957;-91
2022/12/29 02:24:44;;;;;;;;;;;;;;;;;;5003603;28;19898;-90
2022/12/29 02:27:15;;;;;;;;;;;;;;;;;;4987205;28;19898;-91
2022/12/29 02:32:33;;;;;;;;;;;;;;;;;;5136355;22;19949;-89
2022/12/29 02:35:00;;;;;;;;;;;;;;;;;;4986604;28;19953;-91
2022/12/29 02:37:32;;;;;;;;;;;;;;;;;;4987876;28;19924;-89
2022/12/29 02:40:00;;;;;;;;;;;;;;;;;;4987334;28;19956;-91
2022/12/29 02:42:29;;;;;;;;;;;;;;;;;;5170162;23;19909;-89
2022/12/29 02:44:57;;;;;;;;;;;;;;;;;;5019050;28;19926;-92
2022/12/29 02:47:35;;;;;;;;;;;;;;;;;;5028816;28;20026;-89
2022/12/29 02:52:56;;;;;;;;;;;;;;;;;;5694021;22;19953;-89
2022/12/29 02:55:40;;;;;;;;;;;;;;;;;;5004783;28;19901;-89
2022/12/29 02:58:19;;;;;;;;;;;;;;;;;;5021224;23;19941;-88
2022/12/29 03:03:34;;;;;;;;;;;;;;;;;;5546701;22;19910;-88
2022/12/29 03:06:02;;;;;;;;;;;;;;;;;;5003253;28;19922;-89
2022/12/29 03:08:43;;;;;;;;;;;;;;;;;;;;;
2022/12/29 03:16:52;;;;;;;;;;;;;;;;;;5019273;28;19901;-91
2022/12/29 03:19:23;;;;;;;;;;;;;;;;;;5136931;23;19917;-90
2022/12/29 03:24:40;;;;;;;;;;;;;;;;;;5002227;28;19913;-90
2022/12/29 03:27:10;;;;;;;;;;;;;;;;;;4986798;28;19933;-90
2022/12/29 03:29:53;;;;;;;;;;;;;;;;;;4989206;28;19917;-89
2022/12/29 03:32:40;;;;;;;;;;;;;;;;;;6066385;22;19920;-91
2022/12/29 03:35:08;;;;;;;;;;;;;;;;;;5256033;23;20057;-90
2022/12/29 03:37:39;;;;;;;;;;;;;;;;;;4987822;28;19902;-90
2022/12/29 03:40:07;;;;;;;;;;;;;;;;;;4986045;28;19906;-91
2022/12/29 03:42:39;;;;;;;;;;;;;;;;;;5121842;23;19917;-90
2022/12/29 03:45:07;;;;;;;;;;;;;;;;;;5033664;28;19937;-89
2022/12/29 03:47:36;;;;;;;;;;;;;;;;;;5009924;28;19922;-91
2022/12/29 03:50:05;;;;;;;;;;;;;;;;;;4998464;28;19986;-91
2022/12/29 03:52:36;;;;;;;;;;;;;;;;;;5599282;23;19936;-91
2022/12/29 03:55:08;;;;;;;;;;;;;;;;;;5054051;23;19933;-91
2022/12/29 03:57:38;;;;;;;;;;;;;;;;;;4998543;28;19914;-91
2022/12/29 04:00:09;;;;;;;;;;;;;;;;;;4981942;28;19918;-91
2022/12/29 04:02:49;;;;;;;;;;;;;;;;;;4968172;28;19909;-91
2022/12/29 04:05:30;;;;;;;;;;;;;;;;;;4999431;28;19973;-92
2022/12/29 04:07:56;;;;;;;;;;;;;;;;;;5204471;23;19926;-91
2022/12/29 04:10:32;;;;;;;;;;;;;;;;;;4986486;28;19917;-91
2022/12/29 04:13:01;;;;;;;;;;;;;;;;;;4985902;28;19905;-91
2022/12/29 04:15:28;;;;;;;;;;;;;;;;;;5113157;23;19909;-90
2022/12/29 04:23:27;;;;;;;;;;;;;;;;;;5017904;28;20098;-91
2022/12/29 04:25:55;;;;;;;;;;;;;;;;;;5002454;28;19940;-91
2022/12/29 04:28:23;;;;;;;;;;;;;;;;;;4988119;28;19918;-91
2022/12/29 04:31:02;;;;;;;;;;;;;;;;;;4998811;28;19918;-90
2022/12/29 04:33:33;;;;;;;;;;;;;;;;;;4982718;28;19989;-90
2022/12/29 04:36:00;;;;;;;;;;;;;;;;;;5026820;23;19984;-91
2022/12/29 04:38:33;;;;;;;;;;;;;;;;;;5007443;28;19909;-91
2022/12/29 04:41:03;;;;;;;;;;;;;;;;;;5007769;28;19963;-90
2022/12/29 04:43:43;;;;;;;;;;;;;;;;;;5008950;28;19914;-91
2022/12/29 04:46:22;;;;;;;;;;;;;;;;;;5282986;22;19941;-91
2022/12/29 04:49:04;;;;;;;;;;;;;;;;;;5004214;28;19956;-90
2022/12/29 04:52:02;;;;;;;;;;;;;;;;;;5016121;28;19937;-90
2022/12/29 04:54:35;;;;;;;;;;;;;;;;;;4988430;28;19968;-89
2022/12/29 04:57:14;;;;;;;;;;;;;;;;;;5006657;28;19921;-90
2022/12/29 04:59:42;;;;;;;;;;;;;;;;;;5005162;28;19910;-92
2022/12/29 05:02:16;;;;;;;;;;;;;;;;;;5077392;23;20040;-90
2022/12/29 05:10:38;;;;;;;;;;;;;;;;;;5158328;22;19910;-90
2022/12/29 05:13:10;;;;;;;;;;;;;;;;;;5627400;23;19909;-90
2022/12/29 05:18:19;;;;;;;;;;;;;;;;;;5847310;23;19910;-89
2022/12/29 05:20:47;;;;;;;;;;;;;;;;;;4989372;28;19961;-89
2022/12/29 05:23:16;;;;;;;;;;;;;;;;;;5005202;28;19925;-92
2022/12/29 05:28:28;;;;;;;;;;;;;;;;;;5689575;23;19945;-91
2022/12/29 05:31:11;;;;;;;;;;;;;;;;;;5346676;23;19973;-90
2022/12/29 05:33:37;;;;;;;;;;;;;;;;;;5000035;28;19907;-90
2022/12/29 05:36:07;;;;;;;;;;;;;;;;;;5001181;28;19914;-90
2022/12/29 05:41:29;;;;;;;;;;;;;;;;;;5569722;23;19922;-90
2022/12/29 05:44:07;;;;;;;;;;;;;;;;;;5020478;28;19904;-90
2022/12/29 05:49:26;;;;;;;;;;;;;;;;;;5065131;22;19941;-90
2022/12/29 05:54:52;;;;;;;;;;;;;;;;;;6045136;23;19924;-92
2022/12/29 05:57:26;;;;;;;;;;;;;;;;;;5004277;28;19905;-89
2022/12/29 06:02:48;;;;;;;;;;;;;;;;;;5322560;22;19989;-90
2022/12/29 06:08:01;;;;;;;;;;;;;;;;;;5410550;23;19910;-90
2022/12/29 06:13:34;;;;;;;;;;;;;;;;;;5696572;22;19932;-90
2022/12/29 06:16:00;;;;;;;;;;;;;;;;;;5717464;23;19922;-90
2022/12/29 06:53:32;;;;;;;;;;;;;;;;;;5740998;23;19909;-90
2022/12/29 06:58:33;;;;;;;;;;;;;;;;;;6137942;22;19916;-92
2022/12/29 07:01:01;;;;;;;;;;;;;;;;;;5017049;28;19901;-91
2022/12/29 07:03:27;;;;;;;;;;;;;;;;;;5122047;23;19925;-93
2022/12/29 07:05:54;;;;;;;;;;;;;;;;;;4962222;28;19914;-91
2022/12/29 07:54:57;;;;;;;;;;;;;;;;;;5979834;22;19998;-86
2022/12/29 08:08:05;;;;;;;;;;;;;;;;;;5528574;22;19926;-89
2022/12/29 08:13:18;;;;;;;;;;;;;;;;;;5563587;22;19957;-89
2022/12/29 08:18:25;;;;;;;;;;;;;;;;;;5336558;23;19914;-90
2022/12/29 08:20:51;;;;;;;;;;;;;;;;;;5247303;23;19914;-88
2022/12/29 08:23:17;;;;;;;;;;;;;;;;;;5202274;22;19910;-91
2022/12/29 08:25:53;;;;;;;;;;;;;;;;;;4971242;28;19902;-90
2022/12/29 09:12:02;;;;;;;;;;;;;;;;;;5378006;22;19925;-90
2022/12/29 09:14:29;;;;;;;;;;;;;;;;;;5002423;28;19914;-92
2022/12/29 09:19:39;;;;;;;;;;;;;;;;;;5065387;23;19926;-92
2022/12/29 09:22:08;;;;;;;;;;;;;;;;;;4967579;28;19981;-92
2022/12/29 09:24:33;;;;;;;;;;;;;;;;;;4951801;28;19961;-93
2022/12/29 09:27:01;;;;;;;;;;;;;;;;;;4950182;28;20444;-94
2022/12/29 09:29:27;;;;;;;;;;;;;;;;;;4962337;28;19914;-93
2022/12/29 09:31:52;;;;;;;;;;;;;;;;;;4945859;29;19915;-94
2022/12/29 09:34:18;;;;;;;;;;;;;;;;;;4944490;29;19937;-96
2022/12/29 09:36:44;;;;;;;;;;;;;;;;;;4944612;29;20286;-93
2022/12/29 09:39:09;;;;;;;;;;;;;;;;;;4945444;29;20390;-94
2022/12/29 09:41:35;;;;;;;;;;;;;;;;;;4959866;29;20405;-94
2022/12/29 09:44:01;;;;;;;;;;;;;;;;;;4943156;29;20314;-94
2022/12/29 09:46:26;;;;;;;;;;;;;;;;;;4941881;29;19914;-93
2022/12/29 09:48:52;;;;;;;;;;;;;;;;;;4957429;28;19918;-94
2022/12/29 09:51:18;;;;;;;;;;;;;;;;;;4942152;29;19965;-94
2022/12/29 09:53:46;;;;;;;;;;;;;;;;;;4944584;28;19914;-95
2022/12/29 09:56:17;;;;;;;;;;;;;;;;;;4948178;29;19914;-95
2022/12/29 09:58:43;;;;;;;;;;;;;;;;;;4949530;29;19925;-93
2022/12/29 10:01:11;;;;;;;;;;;;;;;;;;4953260;29;19914;-94
2022/12/29 10:03:37;;;;;;;;;;;;;;;;;;4957593;29;19964;-94
2022/12/29 10:06:15;;;;;;;;;;;;;;;;;;4960187;29;19921;-91
2022/12/29 10:53:36;;;;;;;;;;;;;;;;;;5469034;23;19958;-93
2022/12/29 10:56:04;;;;;;;;;;;;;;;;;;4995457;28;19921;-94
2022/12/29 11:01:14;;;;;;;;;;;;;;;;;;5388494;23;19926;-93
2022/12/29 11:03:42;;;;;;;;;;;;;;;;;;4974911;28;19936;-95
2022/12/29 11:06:07;;;;;;;;;;;;;;;;;;4988548;28;19914;-94
2022/12/29 11:08:36;;;;;;;;;;;;;;;;;;4987758;28;19951;-94
2022/12/29 11:11:12;;;;;;;;;;;;;;;;;;4975189;28;19914;-93
2022/12/29 11:13:42;;;;;;;;;;;;;;;;;;4974583;28;19914;-94
2022/12/29 11:16:17;;;;;;;;;;;;;;;;;;4979563;28;19983;-95
2022/12/29 11:18:46;;;;;;;;;;;;;;;;;;4975684;28;19985;-94
2022/12/29 11:21:17;;;;;;;;;;;;;;;;;;4976173;28;19945;-93
2022/12/29 11:23:43;;;;;;;;;;;;;;;;;;4982183;28;20259;-94
2022/12/29 11:26:25;;;;;;;;;;;;;;;;;;;;;
2022/12/29 11:28:52;;;;;;;;;;;;;;;;;;4998533;28;19937;-95
2022/12/29 11:31:20;;;;;;;;;;;;;;;;;;4979399;28;19977;-94
2022/12/29 11:33:48;;;;;;;;;;;;;;;;;;4978580;28;19976;-93
2022/12/29 11:36:14;;;;;;;;;;;;;;;;;;4984742;28;19901;-94
2022/12/29 11:44:06;;;;;;;;;;;;;;;;;;5246608;22;19926;-90
2022/12/29 11:46:44;;;;;;;;;;;;;;;;;;5009436;28;19925;-86
2022/12/29 11:52:32;;;;;;;;;;;;;;;;;;4965582;28;19978;-90
2022/12/29 11:55:07;;;;;;;;;;;;;;;;;;4966241;28;19910;-90
2022/12/29 11:58:02;;;;;;;;;;;;;;;;;;5343335;23;19910;-89
2022/12/29 12:05:54;;;;;;;;;;;;;;;;;;5032681;23;19914;-90
2022/12/29 12:08:38;;;;;;;;;;;;;;;;;;5251259;23;19993;-91
2022/12/29 12:13:48;;;;;;;;;;;;;;;;;;5110649;22;19914;-91
2022/12/29 12:16:38;;;;;;;;;;;;;;;;;;5741523;23;19925;-89
2022/12/29 12:19:31;;;;;;;;;;;;;;;;;;4996769;28;19973;-90
2022/12/29 12:22:31;;;;;;;;;;;;;;;;;;5620147;23;19910;-89
2022/12/29 12:25:10;;;;;;;;;;;;;;;;;;5024905;28;19914;-90
2022/12/29 12:27:42;;;;;;;;;;;;;;;;;;4993980;28;19925;-90
2022/12/29 12:30:13;;;;;;;;;;;;;;;;;;5588845;23;19953;-90
2022/12/29 12:44:03;;;;;;;;;;;;;;;;;;5055108;23;19922;-91
2022/12/29 12:46:34;;;;;;;;;;;;;;;;;;4992644;28;19918;-91
2022/12/29 12:49:23;;;;;;;;;;;;;;;;;;5009466;28;19925;-90
2022/12/29 12:51:50;;;;;;;;;;;;;;;;;;4991803;28;19922;-91
2022/12/29 12:54:23;;;;;;;;;;;;;;;;;;4991535;28;19924;-91
2022/12/29 12:56:53;;;;;;;;;;;;;;;;;;4988442;28;19937;-91
2022/12/29 12:59:33;;;;;;;;;;;;;;;;;;4990073;28;19902;-90
2022/12/29 13:04:44;;;;;;;;;;;;;;;;;;5402081;23;19930;-91
2022/12/29 13:07:15;;;;;;;;;;;;;;;;;;5004915;28;20058;-89
2022/12/29 13:09:52;;;;;;;;;;;;;;;;;;5004045;28;19913;-91
2022/12/29 13:12:20;;;;;;;;;;;;;;;;;;4987860;28;19898;-90
2022/12/29 13:14:50;;;;;;;;;;;;;;;;;;4988975;28;19905;-88
2022/12/29 13:17:38;;;;;;;;;;;;;;;;;;4988590;28;19918;-90
2022/12/29 13:20:19;;;;;;;;;;;;;;;;;;4989632;28;19913;-90
2022/12/29 13:22:50;;;;;;;;;;;;;;;;;;5004810;28;19902;-90
2022/12/29 13:25:30;;;;;;;;;;;;;;;;;;4991178;28;19906;-90
2022/12/29 13:33:50;;;;;;;;;;;;;;;;;;5591384;22;19910;-89
2022/12/29 13:44:28;;;;;;;;;;;;;;;;;;5003624;28;19953;-90
2022/12/29 13:49:59;;;;;;;;;;;;;;;;;;5562693;22;19910;-91
2022/12/29 13:55:09;;;;;;;;;;;;;;;;;;5018176;28;19910;-89
2022/12/29 13:57:42;;;;;;;;;;;;;;;;;;5003656;28;19913;-90
2022/12/29 14:00:23;;;;;;;;;;;;;;;;;;4971536;28;19930;-90
2022/12/29 14:02:57;;;;;;;;;;;;;;;;;;5068856;23;19949;-89
2022/12/29 14:30:36;;;;;;;;;;;;;;;;;;5485823;23;19957;-90
2022/12/29 15:16:48;;;;;;;;;;;;;;;;;;5189101;23;19949;-90
2022/12/29 15:35:38;;;;;;;;;;;;;;;;;;5134208;23;19985;-88
2022/12/29 15:40:48;;;;;;;;;;;;;;;;;;5719831;23;19926;-90
2022/12/29 15:43:21;;;;;;;;;;;;;;;;;;5110747;22;19921;-89
2022/12/29 15:45:57;;;;;;;;;;;;;;;;;;5371806;23;19930;-90
2022/12/29 15:48:47;;;;;;;;;;;;;;;;;;5493193;23;19917;-90
2022/12/29 15:51:17;;;;;;;;;;;;;;;;;;4986673;28;19941;-88
2022/12/29 15:53:48;;;;;;;;;;;;;;;;;;4986242;28;19918;-89
2022/12/29 15:56:14;;;;;;;;;;;;;;;;;;4984284;28;19941;-89
2022/12/29 15:58:50;;;;;;;;;;;;;;;;;;4985726;28;19912;-90
2022/12/29 16:01:17;;;;;;;;;;;;;;;;;;4984438;28;19921;-90
2022/12/29 16:03:50;;;;;;;;;;;;;;;;;;4985306;28;20424;-90
2022/12/29 16:06:20;;;;;;;;;;;;;;;;;;4983720;28;19914;-90
2022/12/29 16:08:54;;;;;;;;;;;;;;;;;;4983311;28;19964;-90
2022/12/29 16:11:26;;;;;;;;;;;;;;;;;;4982504;28;19921;-89
2022/12/29 16:13:54;;;;;;;;;;;;;;;;;;4997460;28;20399;-89
2022/12/29 16:16:28;;;;;;;;;;;;;;;;;;4980582;28;20005;-90
2022/12/29 16:18:55;;;;;;;;;;;;;;;;;;4995177;28;19917;-88
2022/12/29 16:21:21;;;;;;;;;;;;;;;;;;4995713;28;19921;-89
2022/12/29 16:23:47;;;;;;;;;;;;;;;;;;4979547;28;19913;-89
2022/12/29 16:26:16;;;;;;;;;;;;;;;;;;4998164;28;19938;-90
2022/12/29 16:28:46;;;;;;;;;;;;;;;;;;4981872;28;19956;-89
2022/12/29 16:31:15;;;;;;;;;;;;;;;;;;4981561;28;19940;-89
2022/12/29 16:33:44;;;;;;;;;;;;;;;;;;4985393;28;19914;-88
2022/12/29 16:36:10;;;;;;;;;;;;;;;;;;4985526;28;19929;-90
2022/12/29 16:38:36;;;;;;;;;;;;;;;;;;4984533;28;20005;-89
2022/12/29 16:41:02;;;;;;;;;;;;;;;;;;4984390;28;19917;-89
2022/12/29 16:43:32;;;;;;;;;;;;;;;;;;5002012;28;20056;-89
2022/12/29 16:46:01;;;;;;;;;;;;;;;;;;4985804;28;19898;-89
2022/12/29 16:48:28;;;;;;;;;;;;;;;;;;5017785;28;19909;-87
2022/12/29 16:50:56;;;;;;;;;;;;;;;;;;4987147;28;19921;-89
2022/12/29 16:53:23;;;;;;;;;;;;;;;;;;4985836;28;19913;-89
2022/12/29 16:55:49;;;;;;;;;;;;;;;;;;4986234;28;19938;-89
2022/12/29 16:58:16;;;;;;;;;;;;;;;;;;4985814;28;19961;-89
2022/12/29 17:00:42;;;;;;;;;;;;;;;;;;4987337;28;19925;-88
2022/12/29 17:03:13;;;;;;;;;;;;;;;;;;5005433;28;19921;-88
2022/12/29 17:08:29;;;;;;;;;;;;;;;;;;5019271;28;19914;-87
2022/12/29 17:13:42;;;;;;;;;;;;;;;;;;5020160;28;19921;-89
2022/12/29 17:16:08;;;;;;;;;;;;;;;;;;4986632;28;19898;-89
2022/12/29 17:18:44;;;;;;;;;;;;;;;;;;5003009;28;19921;-90
2022/12/29 17:21:34;;;;;;;;;;;;;;;;;;5001520;28;19914;-88
2022/12/29 17:24:02;;;;;;;;;;;;;;;;;;5000658;28;19914;-88
2022/12/29 17:26:30;;;;;;;;;;;;;;;;;;5002703;28;19977;-88
2022/12/29 17:28:58;;;;;;;;;;;;;;;;;;5002786;28;19981;-87
2022/12/29 17:31:31;;;;;;;;;;;;;;;;;;5019437;28;19921;-89
2022/12/29 17:34:06;;;;;;;;;;;;;;;;;;5004180;28;19929;-88
2022/12/29 17:37:03;;;;;;;;;;;;;;;;;;4989252;28;19904;-90
2022/12/29 17:39:30;;;;;;;;;;;;;;;;;;5017269;23;19938;-88
2022/12/29 17:41:56;;;;;;;;;;;;;;;;;;5001526;28;19914;-90
2022/12/29 17:44:21;;;;;;;;;;;;;;;;;;4978652;28;19918;-90
2022/12/29 17:46:47;;;;;;;;;;;;;;;;;;4979777;28;19977;-91
2022/12/29 17:49:13;;;;;;;;;;;;;;;;;;4982509;28;19914;-89
2022/12/29 17:51:39;;;;;;;;;;;;;;;;;;4995298;28;20008;-91
2022/12/29 17:54:04;;;;;;;;;;;;;;;;;;4963674;28;19898;-90
2022/12/29 17:59:03;;;;;;;;;;;;;;;;;;4998211;28;19949;-88
2022/12/29 18:01:30;;;;;;;;;;;;;;;;;;4983208;28;19930;-86
2022/12/29 18:03:56;;;;;;;;;;;;;;;;;;4982025;28;19914;-89
2022/12/29 18:06:22;;;;;;;;;;;;;;;;;;4981603;28;19940;-87
2022/12/29 18:08:47;;;;;;;;;;;;;;;;;;5237091;23;19925;-89
2022/12/29 18:11:13;;;;;;;;;;;;;;;;;;5018416;28;19913;-87
2022/12/29 18:13:39;;;;;;;;;;;;;;;;;;5035120;28;19905;-88
2022/12/29 18:16:05;;;;;;;;;;;;;;;;;;5017861;28;19920;-88
2022/12/29 18:18:31;;;;;;;;;;;;;;;;;;5020457;28;19920;-89
2022/12/29 18:20:59;;;;;;;;;;;;;;;;;;5038073;28;19921;-88
2022/12/29 18:23:25;;;;;;;;;;;;;;;;;;5037829;28;19922;-88
2022/12/29 18:25:54;;;;;;;;;;;;;;;;;;5019083;28;19913;-88
2022/12/29 18:28:19;;;;;;;;;;;;;;;;;;5017007;28;19944;-88
2022/12/29 18:30:46;;;;;;;;;;;;;;;;;;5015575;28;19898;-87
2022/12/29 18:33:11;;;;;;;;;;;;;;;;;;5017224;28;19928;-87
2022/12/29 18:35:37;;;;;;;;;;;;;;;;;;5017626;28;19898;-86
2022/12/29 18:38:04;;;;;;;;;;;;;;;;;;5020725;28;19914;-87
2022/12/29 18:40:30;;;;;;;;;;;;;;;;;;5017105;28;19970;-87
2022/12/29 18:42:57;;;;;;;;;;;;;;;;;;5017157;28;19940;-88
2022/12/29 18:45:23;;;;;;;;;;;;;;;;;;5016786;28;19980;-88
2022/12/29 18:47:49;;;;;;;;;;;;;;;;;;5014937;28;19981;-87
2022/12/29 18:50:16;;;;;;;;;;;;;;;;;;5015405;28;19941;-87
2022/12/29 18:52:42;;;;;;;;;;;;;;;;;;5018607;28;19901;-88
2022/12/29 18:55:08;;;;;;;;;;;;;;;;;;5016170;28;19937;-88
2022/12/29 18:57:35;;;;;;;;;;;;;;;;;;5018270;28;19976;-88
2022/12/29 19:00:02;;;;;;;;;;;;;;;;;;5018554;28;19901;-89
2022/12/29 19:02:31;;;;;;;;;;;;;;;;;;5017843;28;19923;-88
2022/12/29 19:04:58;;;;;;;;;;;;;;;;;;5018133;28;19956;-88
2022/12/29 19:07:24;;;;;;;;;;;;;;;;;;5018646;28;19952;-89
2022/12/29 19:09:51;;;;;;;;;;;;;;;;;;5036984;28;19932;-89
2022/12/29 19:12:22;;;;;;;;;;;;;;;;;;5022536;28;19918;-88
2022/12/29 19:14:48;;;;;;;;;;;;;;;;;;5038866;28;19918;-88
2022/12/29 19:17:14;;;;;;;;;;;;;;;;;;5022244;28;19929;-89
2022/12/29 19:19:43;;;;;;;;;;;;;;;;;;5021695;28;19957;-88
2022/12/29 19:22:09;;;;;;;;;;;;;;;;;;5022322;28;19914;-88
2022/12/29 19:24:39;;;;;;;;;;;;;;;;;;5021665;28;19973;-88
2022/12/29 19:27:05;;;;;;;;;;;;;;;;;;5021976;28;19950;-88
2022/12/29 19:29:33;;;;;;;;;;;;;;;;;;5022014;28;19905;-87
2022/12/29 19:31:58;;;;;;;;;;;;;;;;;;5037553;28;19956;-87
2022/12/29 19:34:25;;;;;;;;;;;;;;;;;;5061179;22;19936;-88
2022/12/29 19:36:51;;;;;;;;;;;;;;;;;;4985722;28;19906;-88
2022/12/29 19:39:17;;;;;;;;;;;;;;;;;;4984949;28;19918;-87
2022/12/29 19:41:45;;;;;;;;;;;;;;;;;;4980626;28;19914;-88
2022/12/29 19:44:16;;;;;;;;;;;;;;;;;;4979701;28;20354;-87
2022/12/29 19:46:45;;;;;;;;;;;;;;;;;;4995482;28;19914;-87
2022/12/29 19:49:10;;;;;;;;;;;;;;;;;;4978274;28;19914;-87
2022/12/29 19:51:36;;;;;;;;;;;;;;;;;;4994863;28;19924;-88
2022/12/29 19:54:02;;;;;;;;;;;;;;;;;;4998607;28;19905;-88
2022/12/29 19:56:29;;;;;;;;;;;;;;;;;;4980160;28;19914;-87
2022/12/29 19:58:59;;;;;;;;;;;;;;;;;;4995760;28;19968;-88
2022/12/29 20:01:34;;;;;;;;;;;;;;;;;;4980801;28;19949;-88
2022/12/29 20:04:01;;;;;;;;;;;;;;;;;;4979162;28;19914;-88
2022/12/29 20:06:28;;;;;;;;;;;;;;;;;;4980053;28;19914;-86
2022/12/29 20:08:54;;;;;;;;;;;;;;;;;;4999536;28;19921;-88
2022/12/29 20:11:20;;;;;;;;;;;;;;;;;;4983843;28;19909;-87
2022/12/29 20:13:46;;;;;;;;;;;;;;;;;;4998991;28;19960;-87
2022/12/29 20:16:12;;;;;;;;;;;;;;;;;;5014158;28;19913;-87
2022/12/29 20:18:37;;;;;;;;;;;;;;;;;;4996705;28;19913;-87
2022/12/29 20:21:03;;;;;;;;;;;;;;;;;;4981883;28;19913;-88
2022/12/29 20:23:29;;;;;;;;;;;;;;;;;;4984113;28;19981;-87
2022/12/29 20:25:55;;;;;;;;;;;;;;;;;;4981628;28;20358;-86
2022/12/29 20:28:21;;;;;;;;;;;;;;;;;;5013831;28;19914;-88
2022/12/29 20:30:49;;;;;;;;;;;;;;;;;;5014886;28;20452;-88
2022/12/29 20:33:15;;;;;;;;;;;;;;;;;;4983421;28;19918;-86
2022/12/29 20:35:40;;;;;;;;;;;;;;;;;;4996774;28;19913;-88
2022/12/29 20:38:06;;;;;;;;;;;;;;;;;;4979993;28;19918;-86
2022/12/29 20:40:32;;;;;;;;;;;;;;;;;;5012668;28;19918;-88
2022/12/29 20:42:58;;;;;;;;;;;;;;;;;;4997067;28;19913;-87
2022/12/29 20:45:24;;;;;;;;;;;;;;;;;;4995905;28;19981;-86
2022/12/29 20:47:49;;;;;;;;;;;;;;;;;;4998830;28;19913;-86
2022/12/29 20:50:15;;;;;;;;;;;;;;;;;;5018036;28;19914;-86
2022/12/29 20:52:49;;;;;;;;;;;;;;;;;;4986421;28;19913;-86
2022/12/29 20:55:15;;;;;;;;;;;;;;;;;;5001417;28;19924;-88
2022/12/29 20:57:40;;;;;;;;;;;;;;;;;;5001410;28;19914;-88
2022/12/29 21:00:06;;;;;;;;;;;;;;;;;;5017717;28;19944;-87
2022/12/29 21:02:32;;;;;;;;;;;;;;;;;;5015781;28;19925;-85
2022/12/29 21:05:00;;;;;;;;;;;;;;;;;;4982005;28;19909;-85
2022/12/29 21:07:28;;;;;;;;;;;;;;;;;;4997110;28;19937;-86
2022/12/29 21:09:56;;;;;;;;;;;;;;;;;;4981275;28;19977;-86
2022/12/29 21:12:22;;;;;;;;;;;;;;;;;;4997142;28;19920;-87
2022/12/29 21:14:48;;;;;;;;;;;;;;;;;;4996529;28;19985;-87
2022/12/29 21:17:14;;;;;;;;;;;;;;;;;;4996013;28;19929;-85
2022/12/29 21:19:40;;;;;;;;;;;;;;;;;;4979841;28;19925;-88
2022/12/29 21:22:06;;;;;;;;;;;;;;;;;;4997526;28;19914;-89
2022/12/29 21:24:38;;;;;;;;;;;;;;;;;;5014213;28;19914;-88
2022/12/29 21:27:20;;;;;;;;;;;;;;;;;;5044461;23;19926;-88
2022/12/29 21:29:49;;;;;;;;;;;;;;;;;;4998364;28;22524;-88
2022/12/29 21:32:15;;;;;;;;;;;;;;;;;;5014485;28;19918;-88
2022/12/29 21:34:41;;;;;;;;;;;;;;;;;;5071763;23;19926;-87
2022/12/29 21:37:07;;;;;;;;;;;;;;;;;;4963371;28;19914;-89
2022/12/29 21:39:34;;;;;;;;;;;;;;;;;;4978988;28;19991;-86
2022/12/29 21:42:02;;;;;;;;;;;;;;;;;;4979209;28;19978;-89
2022/12/29 21:47:21;;;;;;;;;;;;;;;;;;5013245;28;19969;-87
2022/12/29 21:53:36;;;;;;;;;;;;;;;;;;4926338;28;19922;-87
2022/12/29 21:56:04;;;;;;;;;;;;;;;;;;5014747;28;19926;-88
2022/12/29 22:15:09;;;;;;;;;;;;;;;;;;4997756;28;19929;-87
2022/12/29 22:17:40;;;;;;;;;;;;;;;;;;4999549;28;19973;-89
2022/12/29 22:20:08;;;;;;;;;;;;;;;;;;5012973;28;19922;-87
2022/12/29 22:22:34;;;;;;;;;;;;;;;;;;4981184;28;19913;-88
2022/12/29 22:25:03;;;;;;;;;;;;;;;;;;4997442;28;19953;-88
2022/12/29 22:27:34;;;;;;;;;;;;;;;;;;4996841;28;19913;-87
2022/12/29 22:30:00;;;;;;;;;;;;;;;;;;4996750;28;19914;-87
2022/12/29 22:32:25;;;;;;;;;;;;;;;;;;4997732;28;19910;-88
2022/12/29 22:34:59;;;;;;;;;;;;;;;;;;4980991;28;19914;-87
2022/12/29 22:37:25;;;;;;;;;;;;;;;;;;4996963;28;19969;-87
2022/12/29 22:39:51;;;;;;;;;;;;;;;;;;4980828;28;19921;-89
2022/12/29 22:42:17;;;;;;;;;;;;;;;;;;4983879;28;19914;-89
2022/12/29 22:44:43;;;;;;;;;;;;;;;;;;4982097;28;19921;-89
2022/12/29 22:47:12;;;;;;;;;;;;;;;;;;4983424;28;19905;-88
2022/12/29 22:49:38;;;;;;;;;;;;;;;;;;4997437;28;19945;-89
2022/12/29 22:52:03;;;;;;;;;;;;;;;;;;4982032;28;19920;-88
2022/12/29 22:54:29;;;;;;;;;;;;;;;;;;4981673;28;19922;-89
2022/12/29 22:56:55;;;;;;;;;;;;;;;;;;4998159;28;19914;-88
2022/12/29 22:59:24;;;;;;;;;;;;;;;;;;4980894;28;19981;-88
2022/12/29 23:01:52;;;;;;;;;;;;;;;;;;4997263;28;19917;-88
2022/12/29 23:04:21;;;;;;;;;;;;;;;;;;4980196;28;19937;-89
2022/12/29 23:06:47;;;;;;;;;;;;;;;;;;5296567;23;19925;-89
2022/12/29 23:09:13;;;;;;;;;;;;;;;;;;5032240;28;19897;-88
2022/12/29 23:11:39;;;;;;;;;;;;;;;;;;5001853;28;19905;-88
2022/12/29 23:14:04;;;;;;;;;;;;;;;;;;5017961;28;19897;-86
2022/12/29 23:16:31;;;;;;;;;;;;;;;;;;5018660;28;19910;-88
2022/12/29 23:18:57;;;;;;;;;;;;;;;;;;5166831;23;19926;-88
2022/12/29 23:21:25;;;;;;;;;;;;;;;;;;5018448;28;19924;-87
2022/12/29 23:24:19;;;;;;;;;;;;;;;;;;5018625;28;19917;-87
2022/12/29 23:26:48;;;;;;;;;;;;;;;;;;5116969;23;19905;-89
2022/12/29 23:34:32;;;;;;;;;;;;;;;;;;5752016;23;19926;-88
2022/12/29 23:37:13;;;;;;;;;;;;;;;;;;5002800;28;19974;-90
2022/12/29 23:39:40;;;;;;;;;;;;;;;;;;5330508;23;19926;-89
2022/12/29 23:42:19;;;;;;;;;;;;;;;;;;;;;
